sensor_id;sensor_type;location;lat;lon;timestamp;pressure;altitude;pressure_sealevel;temperature;humidity
59767;BME280;46248;58.364;25.582;2023-09-19T00:01:16;100447.53;;;10.03;100.00
59767;BME280;46248;58.364;25.582;2023-09-19T00:04:42;100451.00;;;10.04;100.00
59767;BME280;46248;58.364;25.582;2023-09-19T00:08:04;100443.25;;;10.02;100.00
59767;BME280;46248;58.364;25.582;2023-09-19T00:11:26;100436.31;;;10.01;100.00
59767;BME280;46248;58.364;25.582;2023-09-19T00:14:49;100432.84;;;10.01;100.00
59767;BME280;46248;58.364;25.582;2023-09-19T00:18:11;100423.63;;;9.94;100.00
59767;BME280;46248;58.364;25.582;2023-09-19T00:21:37;100433.09;;;9.96;100.00
59767;BME280;46248;58.364;25.582;2023-09-19T00:24:58;100401.63;;;9.80;100.00
59767;BME280;46248;58.364;25.582;2023-09-19T00:28:21;100418.31;;;9.95;100.00
59767;BME280;46248;58.364;25.582;2023-09-19T00:31:43;100419.91;;;9.98;100.00
59767;BME280;46248;58.364;25.582;2023-09-19T00:35:06;100407.00;;;9.95;100.00
59767;BME280;46248;58.364;25.582;2023-09-19T00:38:30;100411.47;;;9.93;100.00
59767;BME280;46248;58.364;25.582;2023-09-19T00:41:52;100402.69;;;9.94;100.00
59767;BME280;46248;58.364;25.582;2023-09-19T00:45:16;100388.00;;;9.91;100.00
59767;BME280;46248;58.364;25.582;2023-09-19T00:48:41;100391.56;;;9.90;100.00
59767;BME280;46248;58.364;25.582;2023-09-19T00:52:05;100383.72;;;9.90;100.00
59767;BME280;46248;58.364;25.582;2023-09-19T00:55:29;100378.47;;;9.90;100.00
59767;BME280;46248;58.364;25.582;2023-09-19T00:58:53;100382.94;;;9.88;100.00
59767;BME280;46248;58.364;25.582;2023-09-19T01:02:16;100371.53;;;9.89;100.00
59767;BME280;46248;58.364;25.582;2023-09-19T01:05:38;100355.25;;;9.84;100.00
59767;BME280;46248;58.364;25.582;2023-09-19T01:08:59;100351.63;;;9.86;100.00
59767;BME280;46248;58.364;25.582;2023-09-19T01:12:32;100336.84;;;9.85;100.00
59767;BME280;46248;58.364;25.582;2023-09-19T01:16:01;100335.84;;;9.88;100.00
59767;BME280;46248;58.364;25.582;2023-09-19T01:20:03;100329.16;;;9.82;100.00
59767;BME280;46248;58.364;25.582;2023-09-19T01:23:41;100324.41;;;9.91;100.00
59767;BME280;46248;58.364;25.582;2023-09-19T01:27:22;100316.53;;;9.91;100.00
59767;BME280;46248;58.364;25.582;2023-09-19T01:30:48;100312.09;;;9.93;100.00
59767;BME280;46248;58.364;25.582;2023-09-19T01:34:14;100316.44;;;9.92;100.00
59767;BME280;46248;58.364;25.582;2023-09-19T01:37:36;100308.53;;;9.94;100.00
59767;BME280;46248;58.364;25.582;2023-09-19T01:41:04;100295.47;;;9.94;100.00
59767;BME280;46248;58.364;25.582;2023-09-19T01:44:31;100301.38;;;9.97;100.00
59767;BME280;46248;58.364;25.582;2023-09-19T01:48:03;100282.13;;;9.98;100.00
59767;BME280;46248;58.364;25.582;2023-09-19T01:51:33;100268.31;;;9.96;100.00
59767;BME280;46248;58.364;25.582;2023-09-19T01:54:59;100281.75;;;10.06;100.00
59767;BME280;46248;58.364;25.582;2023-09-19T01:58:30;100271.34;;;10.04;100.00
59767;BME280;46248;58.364;25.582;2023-09-19T02:01:55;100264.25;;;10.06;100.00
59767;BME280;46248;58.364;25.582;2023-09-19T02:05:24;100262.44;;;10.08;100.00
59767;BME280;46248;58.364;25.582;2023-09-19T02:08:46;100249.66;;;10.02;100.00
59767;BME280;46248;58.364;25.582;2023-09-19T02:12:08;100255.41;;;10.09;100.00
59767;BME280;46248;58.364;25.582;2023-09-19T02:15:30;100246.63;;;10.10;100.00
59767;BME280;46248;58.364;25.582;2023-09-19T02:18:54;100243.28;;;10.08;100.00
59767;BME280;46248;58.364;25.582;2023-09-19T02:22:17;100245.72;;;10.11;100.00
59767;BME280;46248;58.364;25.582;2023-09-19T02:25:39;100228.59;;;10.05;100.00
59767;BME280;46248;58.364;25.582;2023-09-19T02:29:01;100229.19;;;10.11;100.00
59767;BME280;46248;58.364;25.582;2023-09-19T02:32:25;100220.47;;;10.10;100.00
59767;BME280;46248;58.364;25.582;2023-09-19T02:35:47;100208.25;;;10.11;100.00
59767;BME280;46248;58.364;25.582;2023-09-19T02:39:10;100214.16;;;10.14;100.00
59767;BME280;46248;58.364;25.582;2023-09-19T02:42:32;100210.63;;;10.15;100.00
59767;BME280;46248;58.364;25.582;2023-09-19T02:45:55;100210.63;;;10.15;100.00
59767;BME280;46248;58.364;25.582;2023-09-19T02:49:17;100214.75;;;10.19;100.00
59767;BME280;46248;58.364;25.582;2023-09-19T02:52:41;100195.75;;;10.16;100.00
59767;BME280;46248;58.364;25.582;2023-09-19T02:56:05;100201.59;;;10.21;100.00
59767;BME280;46248;58.364;25.582;2023-09-19T02:59:27;100186.81;;;10.20;100.00
59767;BME280;46248;58.364;25.582;2023-09-19T03:02:54;100191.03;;;10.22;100.00
59767;BME280;46248;58.364;25.582;2023-09-19T03:06:16;100189.28;;;10.23;100.00
59767;BME280;46248;58.364;25.582;2023-09-19T03:09:37;100180.50;;;10.24;100.00
59767;BME280;46248;58.364;25.582;2023-09-19T03:13:00;100179.41;;;10.28;100.00
59767;BME280;46248;58.364;25.582;2023-09-19T03:16:22;100169.72;;;10.30;100.00
59767;BME280;46248;58.364;25.582;2023-09-19T03:19:45;100159.25;;;10.30;100.00
59767;BME280;46248;58.364;25.582;2023-09-19T03:23:08;100154.78;;;10.32;100.00
59767;BME280;46248;58.364;25.582;2023-09-19T03:26:30;100157.78;;;10.40;100.00
59767;BME280;46248;58.364;25.582;2023-09-19T03:29:55;100155.00;;;10.43;100.00
59767;BME280;46248;58.364;25.582;2023-09-19T03:33:16;100149.34;;;10.51;100.00
59767;BME280;46248;58.364;25.582;2023-09-19T03:36:38;100142.16;;;10.54;100.00
59767;BME280;46248;58.364;25.582;2023-09-19T03:40:00;100105.44;;;10.40;100.00
59767;BME280;46248;58.364;25.582;2023-09-19T03:43:25;100126.84;;;10.63;100.00
59767;BME280;46248;58.364;25.582;2023-09-19T03:46:48;100124.06;;;10.66;100.00
59767;BME280;46248;58.364;25.582;2023-09-19T03:50:11;100123.59;;;10.73;100.00
59767;BME280;46248;58.364;25.582;2023-09-19T03:53:32;100111.28;;;10.75;100.00
59767;BME280;46248;58.364;25.582;2023-09-19T03:56:54;100106.50;;;10.82;100.00
59767;BME280;46248;58.364;25.582;2023-09-19T04:00:16;100095.78;;;10.87;100.00
59767;BME280;46248;58.364;25.582;2023-09-19T04:03:43;100103.75;;;10.99;100.00
59767;BME280;46248;58.364;25.582;2023-09-19T04:07:08;100102.44;;;11.07;100.00
59767;BME280;46248;58.364;25.582;2023-09-19T04:10:30;100085.81;;;11.08;100.00
59767;BME280;46248;58.364;25.582;2023-09-19T04:13:52;100088.69;;;11.17;100.00
59767;BME280;46248;58.364;25.582;2023-09-19T04:17:14;100087.31;;;11.26;100.00
59767;BME280;46248;58.364;25.582;2023-09-19T04:20:37;100074.66;;;11.33;100.00
59767;BME280;46248;58.364;25.582;2023-09-19T04:23:59;100070.00;;;11.38;100.00
59767;BME280;46248;58.364;25.582;2023-09-19T04:27:20;100060.03;;;11.43;100.00
59767;BME280;46248;58.364;25.582;2023-09-19T04:30:43;100053.50;;;11.50;100.00
59767;BME280;46248;58.364;25.582;2023-09-19T04:34:05;100054.03;;;11.55;100.00
59767;BME280;46248;58.364;25.582;2023-09-19T04:37:29;100048.41;;;11.61;100.00
59767;BME280;46248;58.364;25.582;2023-09-19T04:40:57;100048.88;;;11.68;100.00
59767;BME280;46248;58.364;25.582;2023-09-19T04:44:19;100051.09;;;11.74;100.00
59767;BME280;46248;58.364;25.582;2023-09-19T04:47:41;100030.66;;;11.79;100.00
59767;BME280;46248;58.364;25.582;2023-09-19T04:51:04;100019.78;;;11.85;100.00
59767;BME280;46248;58.364;25.582;2023-09-19T04:54:27;100022.56;;;11.97;100.00
59767;BME280;46248;58.364;25.582;2023-09-19T04:57:50;100014.31;;;12.03;100.00
59767;BME280;46248;58.364;25.582;2023-09-19T05:01:13;100020.75;;;12.11;100.00
59767;BME280;46248;58.364;25.582;2023-09-19T05:04:35;100002.16;;;12.14;100.00
59767;BME280;46248;58.364;25.582;2023-09-19T05:07:57;100002.50;;;12.23;100.00
59767;BME280;46248;58.364;25.582;2023-09-19T05:11:27;99990.72;;;12.28;100.00
59767;BME280;46248;58.364;25.582;2023-09-19T05:14:50;99986.78;;;12.35;100.00
59767;BME280;46248;58.364;25.582;2023-09-19T05:18:12;99990.56;;;12.44;100.00
59767;BME280;46248;58.364;25.582;2023-09-19T05:21:34;99988.25;;;12.52;100.00
59767;BME280;46248;58.364;25.582;2023-09-19T05:24:55;99976.69;;;12.55;100.00
59767;BME280;46248;58.364;25.582;2023-09-19T05:28:18;99987.31;;;12.66;100.00
59767;BME280;46248;58.364;25.582;2023-09-19T05:31:41;99974.59;;;12.73;100.00
59767;BME280;46248;58.364;25.582;2023-09-19T05:35:04;99971.66;;;12.77;100.00
59767;BME280;46248;58.364;25.582;2023-09-19T05:38:30;99971.97;;;12.86;100.00
59767;BME280;46248;58.364;25.582;2023-09-19T05:41:53;99964.41;;;12.94;100.00
59767;BME280;46248;58.364;25.582;2023-09-19T05:45:17;99963.13;;;12.99;100.00
59767;BME280;46248;58.364;25.582;2023-09-19T05:48:42;99951.22;;;13.06;100.00
59767;BME280;46248;58.364;25.582;2023-09-19T05:52:05;99948.16;;;13.13;100.00
59767;BME280;46248;58.364;25.582;2023-09-19T05:55:27;99944.25;;;13.18;100.00
59767;BME280;46248;58.364;25.582;2023-09-19T05:58:49;99941.97;;;13.26;100.00
59767;BME280;46248;58.364;25.582;2023-09-19T06:02:15;99946.78;;;13.33;100.00
59767;BME280;46248;58.364;25.582;2023-09-19T06:05:37;99945.28;;;13.41;100.00
59767;BME280;46248;58.364;25.582;2023-09-19T06:09:02;99935.91;;;13.50;100.00
59767;BME280;46248;58.364;25.582;2023-09-19T06:12:24;99928.25;;;13.58;100.00
59767;BME280;46248;58.364;25.582;2023-09-19T06:15:45;99931.56;;;13.73;100.00
59767;BME280;46248;58.364;25.582;2023-09-19T06:19:09;99925.41;;;13.85;100.00
59767;BME280;46248;58.364;25.582;2023-09-19T06:22:32;99926.88;;;14.01;100.00
59767;BME280;46248;58.364;25.582;2023-09-19T06:25:54;99922.50;;;14.12;100.00
59767;BME280;46248;58.364;25.582;2023-09-19T06:29:17;99922.19;;;14.28;100.00
59767;BME280;46248;58.364;25.582;2023-09-19T06:32:41;99910.09;;;14.37;100.00
59767;BME280;46248;58.364;25.582;2023-09-19T06:36:06;99911.34;;;14.55;100.00
59767;BME280;46248;58.364;25.582;2023-09-19T06:39:28;99910.41;;;14.68;100.00
59767;BME280;46248;58.364;25.582;2023-09-19T06:42:51;99912.19;;;14.78;100.00
59767;BME280;46248;58.364;25.582;2023-09-19T06:46:14;99910.63;;;14.87;100.00
59767;BME280;46248;58.364;25.582;2023-09-19T06:49:36;99899.34;;;14.96;100.00
59767;BME280;46248;58.364;25.582;2023-09-19T06:52:59;99895.88;;;15.07;100.00
59767;BME280;46248;58.364;25.582;2023-09-19T06:56:22;99892.94;;;15.21;100.00
59767;BME280;46248;58.364;25.582;2023-09-19T06:59:45;99891.97;;;15.33;100.00
59767;BME280;46248;58.364;25.582;2023-09-19T07:03:08;99875.78;;;15.38;100.00
59767;BME280;46248;58.364;25.582;2023-09-19T07:06:32;99874.88;;;15.49;100.00
59767;BME280;46248;58.364;25.582;2023-09-19T07:09:55;99868.16;;;15.56;100.00
59767;BME280;46248;58.364;25.582;2023-09-19T07:13:17;99870.28;;;15.62;100.00
59767;BME280;46248;58.364;25.582;2023-09-19T07:16:39;99872.78;;;15.75;100.00
59767;BME280;46248;58.364;25.582;2023-09-19T07:20:04;99875.09;;;15.89;100.00
59767;BME280;46248;58.364;25.582;2023-09-19T07:23:28;99854.63;;;16.02;100.00
59767;BME280;46248;58.364;25.582;2023-09-19T07:26:51;99832.25;;;16.07;100.00
59767;BME280;46248;58.364;25.582;2023-09-19T07:30:13;99849.63;;;16.30;100.00
59767;BME280;46248;58.364;25.582;2023-09-19T07:33:35;99843.00;;;16.45;100.00
59767;BME280;46248;58.364;25.582;2023-09-19T07:36:58;99843.66;;;16.59;100.00
59767;BME280;46248;58.364;25.582;2023-09-19T07:40:19;99835.31;;;16.73;100.00
59767;BME280;46248;58.364;25.582;2023-09-19T07:43:43;99829.69;;;16.87;100.00
59767;BME280;46248;58.364;25.582;2023-09-19T07:47:04;99838.22;;;17.01;100.00
59767;BME280;46248;58.364;25.582;2023-09-19T07:50:26;99841.28;;;17.15;100.00
59767;BME280;46248;58.364;25.582;2023-09-19T07:53:49;99836.88;;;17.26;100.00
59767;BME280;46248;58.364;25.582;2023-09-19T07:57:11;99833.81;;;17.40;100.00
59767;BME280;46248;58.364;25.582;2023-09-19T08:00:34;99833.09;;;17.57;100.00
59767;BME280;46248;58.364;25.582;2023-09-19T08:03:55;99831.56;;;17.84;100.00
59767;BME280;46248;58.364;25.582;2023-09-19T08:07:17;99816.72;;;18.11;100.00
59767;BME280;46248;58.364;25.582;2023-09-19T08:10:39;99819.31;;;18.30;100.00
59767;BME280;46248;58.364;25.582;2023-09-19T08:14:02;99811.03;;;18.43;100.00
59767;BME280;46248;58.364;25.582;2023-09-19T08:17:27;99810.00;;;18.53;100.00
59767;BME280;46248;58.364;25.582;2023-09-19T08:20:50;99787.81;;;18.54;100.00
59767;BME280;46248;58.364;25.582;2023-09-19T08:24:12;99789.84;;;18.70;100.00
59767;BME280;46248;58.364;25.582;2023-09-19T08:27:35;99797.22;;;18.76;100.00
59767;BME280;46248;58.364;25.582;2023-09-19T08:31:01;99788.50;;;18.84;100.00
59767;BME280;46248;58.364;25.582;2023-09-19T08:34:26;99794.72;;;18.93;100.00
59767;BME280;46248;58.364;25.582;2023-09-19T08:37:48;99782.09;;;19.05;100.00
59767;BME280;46248;58.364;25.582;2023-09-19T08:41:11;99776.03;;;19.12;100.00
59767;BME280;46248;58.364;25.582;2023-09-19T08:44:36;99766.09;;;19.14;100.00
59767;BME280;46248;58.364;25.582;2023-09-19T08:48:16;99773.34;;;19.30;100.00
59767;BME280;46248;58.364;25.582;2023-09-19T08:51:42;99760.97;;;19.39;100.00
59767;BME280;46248;58.364;25.582;2023-09-19T08:55:06;99756.56;;;19.48;100.00
59767;BME280;46248;58.364;25.582;2023-09-19T08:58:36;99750.50;;;19.55;100.00
59767;BME280;46248;58.364;25.582;2023-09-19T09:02:01;99748.06;;;19.62;100.00
59767;BME280;46248;58.364;25.582;2023-09-19T09:05:24;99745.81;;;19.67;100.00
59767;BME280;46248;58.364;25.582;2023-09-19T09:08:50;99750.31;;;19.75;100.00
59767;BME280;46248;58.364;25.582;2023-09-19T09:12:13;99754.56;;;19.85;100.00
59767;BME280;46248;58.364;25.582;2023-09-19T09:15:36;99736.34;;;19.99;100.00
59767;BME280;46248;58.364;25.582;2023-09-19T09:18:59;99733.75;;;20.07;100.00
59767;BME280;46248;58.364;25.582;2023-09-19T09:22:21;99733.44;;;20.18;100.00
59767;BME280;46248;58.364;25.582;2023-09-19T09:25:50;99721.34;;;20.24;100.00
59767;BME280;46248;58.364;25.582;2023-09-19T09:29:15;99728.38;;;20.41;100.00
59767;BME280;46248;58.364;25.582;2023-09-19T09:32:40;99723.31;;;20.56;100.00
59767;BME280;46248;58.364;25.582;2023-09-19T09:36:38;99710.22;;;20.71;100.00
59767;BME280;46248;58.364;25.582;2023-09-19T09:40:02;99716.69;;;20.85;100.00
59767;BME280;46248;58.364;25.582;2023-09-19T09:43:41;99706.41;;;20.98;100.00
59767;BME280;46248;58.364;25.582;2023-09-19T09:47:06;99678.81;;;20.99;100.00
59767;BME280;46248;58.364;25.582;2023-09-19T09:50:47;99686.81;;;21.15;100.00
59767;BME280;46248;58.364;25.582;2023-09-19T09:54:17;99687.28;;;21.19;100.00
59767;BME280;46248;58.364;25.582;2023-09-19T09:57:40;99691.75;;;21.26;100.00
59767;BME280;46248;58.364;25.582;2023-09-19T10:01:03;99683.47;;;21.38;100.00
59767;BME280;46248;58.364;25.582;2023-09-19T10:04:30;99677.81;;;21.49;100.00
59767;BME280;46248;58.364;25.582;2023-09-19T10:08:10;99665.47;;;21.56;100.00
59767;BME280;46248;58.364;25.582;2023-09-19T10:11:34;99662.59;;;21.66;100.00
59767;BME280;46248;58.364;25.582;2023-09-19T10:15:00;99664.91;;;21.77;100.00
59767;BME280;46248;58.364;25.582;2023-09-19T10:18:26;99645.06;;;21.88;100.00
59767;BME280;46248;58.364;25.582;2023-09-19T10:21:50;99657.47;;;22.04;100.00
59767;BME280;46248;58.364;25.582;2023-09-19T10:25:12;99657.91;;;22.15;100.00
59767;BME280;46248;58.364;25.582;2023-09-19T10:28:35;99653.06;;;22.27;100.00
59767;BME280;46248;58.364;25.582;2023-09-19T10:31:59;99644.63;;;22.38;100.00
59767;BME280;46248;58.364;25.582;2023-09-19T10:35:26;99646.25;;;22.48;100.00
59767;BME280;46248;58.364;25.582;2023-09-19T10:38:49;99637.19;;;22.57;100.00
59767;BME280;46248;58.364;25.582;2023-09-19T10:42:19;99635.47;;;22.64;100.00
59767;BME280;46248;58.364;25.582;2023-09-19T10:45:44;99623.72;;;22.73;100.00
59767;BME280;46248;58.364;25.582;2023-09-19T10:49:07;99624.19;;;22.77;100.00
59767;BME280;46248;58.364;25.582;2023-09-19T10:52:39;99629.19;;;22.80;100.00
59767;BME280;46248;58.364;25.582;2023-09-19T10:56:04;99622.91;;;22.73;100.00
59767;BME280;46248;58.364;25.582;2023-09-19T10:59:35;99602.63;;;22.63;100.00
59767;BME280;46248;58.364;25.582;2023-09-19T11:03:16;99606.75;;;22.66;100.00
59767;BME280;46248;58.364;25.582;2023-09-19T11:06:41;99605.69;;;22.75;100.00
59767;BME280;46248;58.364;25.582;2023-09-19T11:10:06;99608.94;;;22.85;100.00
59767;BME280;46248;58.364;25.582;2023-09-19T11:13:31;99602.59;;;22.86;100.00
59767;BME280;46248;58.364;25.582;2023-09-19T11:17:32;99608.22;;;22.92;100.00
59767;BME280;46248;58.364;25.582;2023-09-19T11:29:28;99584.75;;;23.25;100.00
59767;BME280;46248;58.364;25.582;2023-09-19T11:33:16;99581.34;;;23.31;100.00
59767;BME280;46248;58.364;25.582;2023-09-19T11:36:41;99572.22;;;23.40;100.00
59767;BME280;46248;58.364;25.582;2023-09-19T11:40:06;99572.22;;;23.40;100.00
59767;BME280;46248;58.364;25.582;2023-09-19T11:43:36;99566.66;;;23.42;100.00
59767;BME280;46248;58.364;25.582;2023-09-19T11:47:02;99568.72;;;23.40;100.00
59767;BME280;46248;58.364;25.582;2023-09-19T11:50:25;99549.66;;;23.43;100.00
59767;BME280;46248;58.364;25.582;2023-09-19T11:53:48;99552.94;;;23.45;100.00
59767;BME280;46248;58.364;25.582;2023-09-19T11:57:11;99540.59;;;23.44;100.00
59767;BME280;46248;58.364;25.582;2023-09-19T12:00:42;99534.63;;;23.42;100.00
59767;BME280;46248;58.364;25.582;2023-09-19T12:04:08;99538.50;;;23.39;100.00
59767;BME280;46248;58.364;25.582;2023-09-19T12:07:42;99530.00;;;23.36;100.00
59767;BME280;46248;58.364;25.582;2023-09-19T12:11:05;99532.69;;;23.36;100.00
59767;BME280;46248;58.364;25.582;2023-09-19T12:14:28;99534.00;;;23.40;100.00
59767;BME280;46248;58.364;25.582;2023-09-19T12:17:51;99524.50;;;23.37;100.00
59767;BME280;46248;58.364;25.582;2023-09-19T12:21:24;99519.91;;;23.31;100.00
59767;BME280;46248;58.364;25.582;2023-09-19T12:24:48;99523.59;;;23.30;100.00
59767;BME280;46248;58.364;25.582;2023-09-19T12:28:11;99513.91;;;23.29;100.00
59767;BME280;46248;58.364;25.582;2023-09-19T12:31:33;99522.19;;;23.34;100.00
59767;BME280;46248;58.364;25.582;2023-09-19T12:34:57;99506.81;;;23.36;100.00
59767;BME280;46248;58.364;25.582;2023-09-19T12:38:25;99497.59;;;23.39;100.00
59767;BME280;46248;58.364;25.582;2023-09-19T12:41:49;99501.34;;;23.44;100.00
59767;BME280;46248;58.364;25.582;2023-09-19T12:45:13;99496.09;;;23.51;100.00
59767;BME280;46248;58.364;25.582;2023-09-19T12:48:36;99491.28;;;23.61;100.00
59767;BME280;46248;58.364;25.582;2023-09-19T12:51:58;99486.78;;;23.76;99.76
59767;BME280;46248;58.364;25.582;2023-09-19T12:55:23;99482.13;;;23.85;100.00
59767;BME280;46248;58.364;25.582;2023-09-19T12:58:50;99476.28;;;23.96;99.39
59767;BME280;46248;58.364;25.582;2023-09-19T13:02:14;99472.47;;;24.06;99.12
59767;BME280;46248;58.364;25.582;2023-09-19T13:05:49;99465.97;;;24.15;98.89
59767;BME280;46248;58.364;25.582;2023-09-19T13:09:11;99460.25;;;24.18;98.69
59767;BME280;46248;58.364;25.582;2023-09-19T13:12:37;99455.06;;;24.16;98.13
59767;BME280;46248;58.364;25.582;2023-09-19T13:16:01;99461.66;;;24.20;99.11
59767;BME280;46248;58.364;25.582;2023-09-19T13:19:38;99462.91;;;24.18;98.09
59767;BME280;46248;58.364;25.582;2023-09-19T13:23:01;99462.72;;;23.98;98.40
59767;BME280;46248;58.364;25.582;2023-09-19T13:26:30;99463.22;;;23.87;99.37
59767;BME280;46248;58.364;25.582;2023-09-19T13:29:54;99453.50;;;23.79;98.88
59767;BME280;46248;58.364;25.582;2023-09-19T13:33:15;99461.81;;;23.69;100.00
59767;BME280;46248;58.364;25.582;2023-09-19T13:36:41;99452.25;;;23.60;100.00
59767;BME280;46248;58.364;25.582;2023-09-19T13:40:04;99452.06;;;23.47;100.00
59767;BME280;46248;58.364;25.582;2023-09-19T13:43:26;99451.56;;;23.37;100.00
59767;BME280;46248;58.364;25.582;2023-09-19T13:46:50;99443.09;;;23.33;100.00
59767;BME280;46248;58.364;25.582;2023-09-19T13:50:15;99443.38;;;23.23;100.00
59767;BME280;46248;58.364;25.582;2023-09-19T13:53:37;99430.75;;;23.17;100.00
59767;BME280;46248;58.364;25.582;2023-09-19T13:56:58;99421.84;;;23.10;100.00
59767;BME280;46248;58.364;25.582;2023-09-19T14:00:21;99420.09;;;23.02;100.00
59767;BME280;46248;58.364;25.582;2023-09-19T14:03:44;99417.63;;;23.01;100.00
59767;BME280;46248;58.364;25.582;2023-09-19T14:07:07;99412.22;;;22.94;100.00
59767;BME280;46248;58.364;25.582;2023-09-19T14:10:30;99421.38;;;22.92;100.00
59767;BME280;46248;58.364;25.582;2023-09-19T14:13:52;99401.22;;;22.89;100.00
59767;BME280;46248;58.364;25.582;2023-09-19T14:17:17;99396.69;;;22.90;100.00
59767;BME280;46248;58.364;25.582;2023-09-19T14:20:41;99402.25;;;22.88;100.00
59767;BME280;46248;58.364;25.582;2023-09-19T14:24:03;99387.13;;;22.80;100.00
59767;BME280;46248;58.364;25.582;2023-09-19T14:27:26;99390.75;;;22.73;100.00
59767;BME280;46248;58.364;25.582;2023-09-19T14:30:48;99375.56;;;22.58;100.00
59767;BME280;46248;58.364;25.582;2023-09-19T14:34:10;99381.34;;;22.62;100.00
59767;BME280;46248;58.364;25.582;2023-09-19T14:37:33;99385.88;;;22.61;100.00
59767;BME280;46248;58.364;25.582;2023-09-19T14:40:59;99376.94;;;22.54;100.00
59767;BME280;46248;58.364;25.582;2023-09-19T14:44:22;99374.16;;;22.48;100.00
59767;BME280;46248;58.364;25.582;2023-09-19T14:47:45;99380.59;;;22.38;100.00
59767;BME280;46248;58.364;25.582;2023-09-19T14:51:07;99379.69;;;22.31;100.00
59767;BME280;46248;58.364;25.582;2023-09-19T14:54:31;99371.28;;;22.20;100.00
59767;BME280;46248;58.364;25.582;2023-09-19T14:57:54;99378.13;;;22.14;100.00
59767;BME280;46248;58.364;25.582;2023-09-19T15:01:18;99378.41;;;22.04;100.00
59767;BME280;46248;58.364;25.582;2023-09-19T15:04:40;99379.38;;;21.88;100.00
59767;BME280;46248;58.364;25.582;2023-09-19T15:08:02;99400.81;;;21.72;100.00
59767;BME280;46248;58.364;25.582;2023-09-19T15:11:26;99406.13;;;21.49;100.00
59767;BME280;46248;58.364;25.582;2023-09-19T15:14:47;99441.56;;;21.18;100.00
59767;BME280;46248;58.364;25.582;2023-09-19T15:18:09;99428.03;;;20.80;100.00
59767;BME280;46248;58.364;25.582;2023-09-19T15:21:32;99420.94;;;20.48;100.00
59767;BME280;46248;58.364;25.582;2023-09-19T15:24:54;99422.16;;;20.21;100.00
59767;BME280;46248;58.364;25.582;2023-09-19T15:28:18;99429.13;;;20.06;100.00
59767;BME280;46248;58.364;25.582;2023-09-19T15:31:43;99430.28;;;19.87;100.00
59767;BME280;46248;58.364;25.582;2023-09-19T15:35:05;99435.59;;;19.71;100.00
59767;BME280;46248;58.364;25.582;2023-09-19T15:38:28;99432.88;;;19.62;100.00
59767;BME280;46248;58.364;25.582;2023-09-19T15:41:50;99440.00;;;19.54;100.00
59767;BME280;46248;58.364;25.582;2023-09-19T15:45:13;99432.16;;;19.44;100.00
59767;BME280;46248;58.364;25.582;2023-09-19T15:48:36;99438.28;;;19.36;100.00
59767;BME280;46248;58.364;25.582;2023-09-19T15:51:58;99443.56;;;19.28;100.00
59767;BME280;46248;58.364;25.582;2023-09-19T15:55:20;99450.81;;;19.18;100.00
59767;BME280;46248;58.364;25.582;2023-09-19T15:58:44;99454.78;;;19.14;100.00
59767;BME280;46248;58.364;25.582;2023-09-19T16:02:07;99453.41;;;19.02;100.00
59767;BME280;46248;58.364;25.582;2023-09-19T16:05:35;99464.50;;;18.97;100.00
59767;BME280;46248;58.364;25.582;2023-09-19T16:08:58;99459.47;;;18.86;100.00
59767;BME280;46248;58.364;25.582;2023-09-19T16:12:23;99463.28;;;18.83;100.00
59767;BME280;46248;58.364;25.582;2023-09-19T16:15:46;99470.72;;;18.80;100.00
59767;BME280;46248;58.364;25.582;2023-09-19T16:19:09;99475.09;;;18.71;100.00
59767;BME280;46248;58.364;25.582;2023-09-19T16:27:18;99486.81;;;18.42;100.00
59767;BME280;46248;58.364;25.582;2023-09-19T16:30:41;99481.47;;;18.34;100.00
59767;BME280;46248;58.364;25.582;2023-09-19T16:34:03;99490.50;;;18.23;100.00
59767;BME280;46248;58.364;25.582;2023-09-19T16:37:26;99483.63;;;18.13;100.00
59767;BME280;46248;58.364;25.582;2023-09-19T16:40:52;99494.53;;;18.10;100.00
59767;BME280;46248;58.364;25.582;2023-09-19T16:44:14;99488.97;;;18.03;100.00
59767;BME280;46248;58.364;25.582;2023-09-19T16:47:36;99491.41;;;17.96;100.00
59767;BME280;46248;58.364;25.582;2023-09-19T16:51:00;99496.47;;;17.90;100.00
59767;BME280;46248;58.364;25.582;2023-09-19T16:54:25;99507.06;;;17.90;100.00
59767;BME280;46248;58.364;25.582;2023-09-19T16:57:47;99503.06;;;17.85;100.00
59767;BME280;46248;58.364;25.582;2023-09-19T17:01:09;99499.34;;;17.78;100.00
59767;BME280;46248;58.364;25.582;2023-09-19T17:04:31;99510.19;;;17.75;100.00
59767;BME280;46248;58.364;25.582;2023-09-19T17:07:53;99512.16;;;17.73;100.00
59767;BME280;46248;58.364;25.582;2023-09-19T17:11:17;99516.78;;;17.71;100.00
59767;BME280;46248;58.364;25.582;2023-09-19T17:14:41;99516.25;;;17.68;100.00
59767;BME280;46248;58.364;25.582;2023-09-19T17:18:04;99512.78;;;17.67;100.00
59767;BME280;46248;58.364;25.582;2023-09-19T17:21:26;99516.53;;;17.65;100.00
59767;BME280;46248;58.364;25.582;2023-09-19T17:24:48;99514.03;;;17.63;100.00
59767;BME280;46248;58.364;25.582;2023-09-19T17:28:12;99528.25;;;17.62;100.00
59767;BME280;46248;58.364;25.582;2023-09-19T17:31:34;99529.38;;;17.59;100.00
59767;BME280;46248;58.364;25.582;2023-09-19T17:34:57;99528.97;;;17.54;100.00
59767;BME280;46248;58.364;25.582;2023-09-19T17:38:19;99532.75;;;17.52;100.00
59767;BME280;46248;58.364;25.582;2023-09-19T17:41:41;99533.22;;;17.47;100.00
59767;BME280;46248;58.364;25.582;2023-09-19T17:45:05;99534.84;;;17.48;100.00